sensor_id;sensor_type;location;lat;lon;timestamp;pressure;altitude;pressure_sealevel;temperature;humidity
22104;BME280;11218;48.886;9.426;2023-02-01T00:01:35;98692.41;;;4.34;87.92
22104;BME280;11218;48.886;9.426;2023-02-01T00:04:03;98697.94;;;4.32;87.29
22104;BME280;11218;48.886;9.426;2023-02-01T00:06:32;98703.66;;;4.29;87.92
22104;BME280;11218;48.886;9.426;2023-02-01T00:09:00;98698.69;;;4.26;87.63
22104;BME280;11218;48.886;9.426;2023-02-01T00:11:28;98687.81;;;4.21;87.99
22104;BME280;11218;48.886;9.426;2023-02-01T00:13:57;98685.38;;;4.26;87.72
22104;BME280;11218;48.886;9.426;2023-02-01T00:16:27;98683.53;;;4.26;87.62
22104;BME280;11218;48.886;9.426;2023-02-01T00:18:59;98668.97;;;4.22;87.76
22104;BME280;11218;48.886;9.426;2023-02-01T00:21:28;98661.00;;;4.29;87.72
22104;BME280;11218;48.886;9.426;2023-02-01T00:23:57;98666.97;;;4.31;87.68
22104;BME280;11218;48.886;9.426;2023-02-01T00:26:32;98659.75;;;4.25;88.03
22104;BME280;11218;48.886;9.426;2023-02-01T00:29:02;98653.84;;;4.29;87.66
22104;BME280;11218;48.886;9.426;2023-02-01T00:31:31;98656.91;;;4.26;87.26
22104;BME280;11218;48.886;9.426;2023-02-01T00:34:01;98662.28;;;4.33;87.46
22104;BME280;11218;48.886;9.426;2023-02-01T00:36:33;98658.75;;;4.26;88.03
22104;BME280;11218;48.886;9.426;2023-02-01T00:39:02;98652.34;;;4.20;88.25
22104;BME280;11218;48.886;9.426;2023-02-01T00:41:30;98654.19;;;4.20;88.40
22104;BME280;11218;48.886;9.426;2023-02-01T00:43:59;98651.97;;;4.23;88.25
22104;BME280;11218;48.886;9.426;2023-02-01T00:46:28;98658.50;;;4.21;88.07
22104;BME280;11218;48.886;9.426;2023-02-01T00:48:56;98653.34;;;4.19;88.62
22104;BME280;11218;48.886;9.426;2023-02-01T00:51:27;98642.56;;;4.27;88.11
22104;BME280;11218;48.886;9.426;2023-02-01T00:53:55;98633.06;;;4.18;88.48
22104;BME280;11218;48.886;9.426;2023-02-01T00:56:24;98635.78;;;4.25;88.14
22104;BME280;11218;48.886;9.426;2023-02-01T00:58:54;98626.72;;;4.19;88.36
22104;BME280;11218;48.886;9.426;2023-02-01T01:01:24;98616.88;;;4.20;88.52
22104;BME280;11218;48.886;9.426;2023-02-01T01:03:55;98617.50;;;4.22;88.19
22104;BME280;11218;48.886;9.426;2023-02-01T01:06:27;98614.22;;;4.20;87.80
22104;BME280;11218;48.886;9.426;2023-02-01T01:08:57;98608.91;;;4.20;87.58
22104;BME280;11218;48.886;9.426;2023-02-01T01:11:27;98607.06;;;4.20;87.55
22104;BME280;11218;48.886;9.426;2023-02-01T01:13:57;98604.59;;;4.19;88.23
22104;BME280;11218;48.886;9.426;2023-02-01T01:16:27;98603.38;;;4.21;87.37
22104;BME280;11218;48.886;9.426;2023-02-01T01:18:55;98609.47;;;4.15;87.69
22104;BME280;11218;48.886;9.426;2023-02-01T01:21:26;98612.97;;;4.16;88.08
22104;BME280;11218;48.886;9.426;2023-02-01T01:23:54;98615.69;;;4.22;87.79
22104;BME280;11218;48.886;9.426;2023-02-01T01:26:26;98619.13;;;4.16;87.62
22104;BME280;11218;48.886;9.426;2023-02-01T01:28:58;98615.63;;;4.16;87.69
22104;BME280;11218;48.886;9.426;2023-02-01T01:31:26;98615.69;;;4.22;87.43
22104;BME280;11218;48.886;9.426;2023-02-01T01:33:56;98623.66;;;4.22;87.70
22104;BME280;11218;48.886;9.426;2023-02-01T01:36:27;98628.81;;;4.24;87.36
22104;BME280;11218;48.886;9.426;2023-02-01T01:38:56;98622.47;;;4.25;87.21
22104;BME280;11218;48.886;9.426;2023-02-01T01:41:28;98624.25;;;4.18;88.08
22104;BME280;11218;48.886;9.426;2023-02-01T01:43:59;98627.78;;;4.25;88.07
22104;BME280;11218;48.886;9.426;2023-02-01T01:46:29;98607.09;;;4.27;87.78
22104;BME280;11218;48.886;9.426;2023-02-01T01:49:03;98605.88;;;4.29;87.76
22104;BME280;11218;48.886;9.426;2023-02-01T01:51:37;98627.00;;;4.31;87.00
22104;BME280;11218;48.886;9.426;2023-02-01T01:54:10;98617.56;;;4.28;86.72
22104;BME280;11218;48.886;9.426;2023-02-01T01:56:40;98614.06;;;4.28;87.58
22104;BME280;11218;48.886;9.426;2023-02-01T01:59:10;98612.81;;;4.24;88.00
22104;BME280;11218;48.886;9.426;2023-02-01T02:01:39;98607.91;;;4.27;87.40
22104;BME280;11218;48.886;9.426;2023-02-01T02:04:07;98613.06;;;4.29;87.10
22104;BME280;11218;48.886;9.426;2023-02-01T02:06:41;98604.25;;;4.28;87.83
22104;BME280;11218;48.886;9.426;2023-02-01T02:09:15;98606.50;;;4.32;87.52
22104;BME280;11218;48.886;9.426;2023-02-01T02:11:44;98599.78;;;4.36;86.94
22104;BME280;11218;48.886;9.426;2023-02-01T02:14:13;98602.06;;;4.39;87.00
22104;BME280;11218;48.886;9.426;2023-02-01T02:16:58;98600.16;;;4.33;86.91
22104;BME280;11218;48.886;9.426;2023-02-01T02:19:53;98596.06;;;4.30;86.98
22104;BME280;11218;48.886;9.426;2023-02-01T02:22:46;98598.31;;;4.33;86.78
22104;BME280;11218;48.886;9.426;2023-02-01T02:25:40;98598.72;;;4.30;87.20
22104;BME280;11218;48.886;9.426;2023-02-01T02:31:24;98591.13;;;4.27;87.36
22104;BME280;11218;48.886;9.426;2023-02-01T02:34:05;98603.84;;;4.32;87.63
22104;BME280;11218;48.886;9.426;2023-02-01T02:36:45;98608.59;;;4.36;86.97
22104;BME280;11218;48.886;9.426;2023-02-01T02:39:21;98600.38;;;4.31;87.42
22104;BME280;11218;48.886;9.426;2023-02-01T02:41:57;98585.59;;;4.28;87.17
22104;BME280;11218;48.886;9.426;2023-02-01T02:44:49;98596.47;;;4.34;87.32
22104;BME280;11218;48.886;9.426;2023-02-01T02:47:45;98598.56;;;4.38;86.75
22104;BME280;11218;48.886;9.426;2023-02-01T02:50:23;98593.81;;;4.34;86.32
22104;BME280;11218;48.886;9.426;2023-02-01T02:53:14;98588.50;;;4.34;86.70
22104;BME280;11218;48.886;9.426;2023-02-01T02:56:01;98586.66;;;4.34;86.76
22104;BME280;11218;48.886;9.426;2023-02-01T02:58:51;98578.06;;;4.39;86.10
22104;BME280;11218;48.886;9.426;2023-02-01T03:01:37;98568.44;;;4.38;86.21
22104;BME280;11218;48.886;9.426;2023-02-01T03:04:24;98563.72;;;4.40;86.19
22104;BME280;11218;48.886;9.426;2023-02-01T03:06:54;98563.91;;;4.38;86.62
22104;BME280;11218;48.886;9.426;2023-02-01T03:09:26;98560.03;;;4.41;86.22
22104;BME280;11218;48.886;9.426;2023-02-01T03:11:58;98549.38;;;4.41;85.74
22104;BME280;11218;48.886;9.426;2023-02-01T03:14:51;98528.25;;;4.39;86.30
22104;BME280;11218;48.886;9.426;2023-02-01T03:17:25;98530.72;;;4.47;86.03
22104;BME280;11218;48.886;9.426;2023-02-01T03:20:00;98512.25;;;4.39;86.28
22104;BME280;11218;48.886;9.426;2023-02-01T03:22:32;98506.94;;;4.39;86.54
22104;BME280;11218;48.886;9.426;2023-02-01T03:25:05;98513.72;;;4.48;85.82
22104;BME280;11218;48.886;9.426;2023-02-01T03:27:37;98498.97;;;4.52;86.10
22104;BME280;11218;48.886;9.426;2023-02-01T03:30:16;98492.59;;;4.40;86.48
22104;BME280;11218;48.886;9.426;2023-02-01T03:32:48;98498.31;;;4.37;86.81
22104;BME280;11218;48.886;9.426;2023-02-01T03:35:30;98504.28;;;4.39;86.63
22104;BME280;11218;48.886;9.426;2023-02-01T03:38:07;98505.69;;;4.35;87.20
22104;BME280;11218;48.886;9.426;2023-02-01T03:40:39;98510.41;;;4.33;87.15
22104;BME280;11218;48.886;9.426;2023-02-01T03:43:12;98514.69;;;4.34;87.04
22104;BME280;11218;48.886;9.426;2023-02-01T03:45:44;98523.34;;;4.43;87.43
22104;BME280;11218;48.886;9.426;2023-02-01T03:48:14;98520.03;;;4.34;87.32
22104;BME280;11218;48.886;9.426;2023-02-01T03:50:47;98530.88;;;4.33;87.43
22104;BME280;11218;48.886;9.426;2023-02-01T03:53:20;98533.53;;;4.26;88.20
22104;BME280;11218;48.886;9.426;2023-02-01T03:55:51;98528.81;;;4.28;87.67
22104;BME280;11218;48.886;9.426;2023-02-01T03:58:22;98534.38;;;4.33;87.68
22104;BME280;11218;48.886;9.426;2023-02-01T04:00:53;98535.59;;;4.31;87.94
22104;BME280;11218;48.886;9.426;2023-02-01T04:03:22;98537.00;;;4.26;88.33
22104;BME280;11218;48.886;9.426;2023-02-01T04:05:52;98542.91;;;4.22;88.64
22104;BME280;11218;48.886;9.426;2023-02-01T04:08:23;98549.69;;;4.24;88.49
22104;BME280;11218;48.886;9.426;2023-02-01T04:10:51;98550.91;;;4.22;88.81
22104;BME280;11218;48.886;9.426;2023-02-01T04:13:20;98546.41;;;4.22;88.78
22104;BME280;11218;48.886;9.426;2023-02-01T04:15:48;98538.06;;;4.32;88.23
22104;BME280;11218;48.886;9.426;2023-02-01T04:18:17;98516.91;;;4.24;88.90
22104;BME280;11218;48.886;9.426;2023-02-01T04:20:46;98499.69;;;4.26;88.43
22104;BME280;11218;48.886;9.426;2023-02-01T04:23:14;98500.56;;;4.34;88.17
22104;BME280;11218;48.886;9.426;2023-02-01T04:25:45;98520.03;;;4.34;88.05
22104;BME280;11218;48.886;9.426;2023-02-01T04:28:13;98529.44;;;4.30;88.17
22104;BME280;11218;48.886;9.426;2023-02-01T04:30:41;98532.13;;;4.37;87.88
22104;BME280;11218;48.886;9.426;2023-02-01T04:33:09;98540.34;;;4.35;88.13
22104;BME280;11218;48.886;9.426;2023-02-01T04:35:40;98544.25;;;4.39;87.88
22104;BME280;11218;48.886;9.426;2023-02-01T04:38:08;98539.50;;;4.35;88.16
22104;BME280;11218;48.886;9.426;2023-02-01T04:40:37;98528.84;;;4.35;88.41
22104;BME280;11218;48.886;9.426;2023-02-01T04:43:07;98516.34;;;4.35;87.98
22104;BME280;11218;48.886;9.426;2023-02-01T04:45:35;98534.38;;;4.33;88.34
22104;BME280;11218;48.886;9.426;2023-02-01T04:48:04;98542.16;;;4.35;87.98
22104;BME280;11218;48.886;9.426;2023-02-01T04:50:32;98539.91;;;4.32;88.28
22104;BME280;11218;48.886;9.426;2023-02-01T04:53:00;98539.94;;;4.38;88.02
22104;BME280;11218;48.886;9.426;2023-02-01T04:55:28;98535.66;;;4.44;87.65
22104;BME280;11218;48.886;9.426;2023-02-01T04:57:57;98534.41;;;4.40;87.60
22104;BME280;11218;48.886;9.426;2023-02-01T05:00:27;98529.06;;;4.40;87.81
22104;BME280;11218;48.886;9.426;2023-02-01T05:02:55;98515.16;;;4.44;87.63
22104;BME280;11218;48.886;9.426;2023-02-01T05:05:24;98509.41;;;4.47;87.48
22104;BME280;11218;48.886;9.426;2023-02-01T05:07:52;98519.47;;;4.52;86.43
22104;BME280;11218;48.886;9.426;2023-02-01T05:10:21;98535.22;;;4.47;86.39
22104;BME280;11218;48.886;9.426;2023-02-01T05:12:51;98529.09;;;4.53;86.44
22104;BME280;11218;48.886;9.426;2023-02-01T05:15:38;98546.41;;;4.70;86.04
22104;BME280;11218;48.886;9.426;2023-02-01T05:18:06;98535.53;;;4.72;85.74
22104;BME280;11218;48.886;9.426;2023-02-01T05:20:34;98536.59;;;4.77;86.04
22104;BME280;11218;48.886;9.426;2023-02-01T05:23:03;98522.44;;;4.77;85.29
22104;BME280;11218;48.886;9.426;2023-02-01T05:25:32;98526.09;;;4.69;86.03
22104;BME280;11218;48.886;9.426;2023-02-01T05:28:02;98533.72;;;4.79;85.61
22104;BME280;11218;48.886;9.426;2023-02-01T05:30:30;98538.84;;;4.80;85.63
22104;BME280;11218;48.886;9.426;2023-02-01T05:33:03;98537.41;;;4.78;85.25
22104;BME280;11218;48.886;9.426;2023-02-01T05:35:31;98544.16;;;4.74;86.25
22104;BME280;11218;48.886;9.426;2023-02-01T05:38:00;98528.78;;;4.76;86.14
22104;BME280;11218;48.886;9.426;2023-02-01T05:40:29;98524.69;;;4.73;85.43
22104;BME280;11218;48.886;9.426;2023-02-01T05:42:57;98523.25;;;4.77;85.78
22104;BME280;11218;48.886;9.426;2023-02-01T05:45:25;98527.34;;;4.73;86.16
22104;BME280;11218;48.886;9.426;2023-02-01T05:47:53;98527.75;;;4.77;86.49
22104;BME280;11218;48.886;9.426;2023-02-01T05:50:26;98539.84;;;4.73;86.95
22104;BME280;11218;48.886;9.426;2023-02-01T05:52:54;98542.91;;;4.70;86.23
22104;BME280;11218;48.886;9.426;2023-02-01T05:55:23;98543.13;;;4.68;86.88
22104;BME280;11218;48.886;9.426;2023-02-01T05:57:51;98544.97;;;4.68;87.30
22104;BME280;11218;48.886;9.426;2023-02-01T06:00:20;98543.56;;;4.78;86.38
22104;BME280;11218;48.886;9.426;2023-02-01T06:02:52;98538.41;;;4.70;86.50
22104;BME280;11218;48.886;9.426;2023-02-01T06:05:21;98542.13;;;4.76;86.46
22104;BME280;11218;48.886;9.426;2023-02-01T06:07:52;98546.44;;;4.77;86.20
22104;BME280;11218;48.886;9.426;2023-02-01T06:10:20;98543.34;;;4.73;86.23
22104;BME280;11218;48.886;9.426;2023-02-01T06:12:49;98542.75;;;4.78;85.95
22104;BME280;11218;48.886;9.426;2023-02-01T06:15:17;98544.59;;;4.84;85.55
22104;BME280;11218;48.886;9.426;2023-02-01T06:17:46;98557.94;;;4.84;85.64
22104;BME280;11218;48.886;9.426;2023-02-01T06:20:16;98554.28;;;4.91;84.65
22104;BME280;11218;48.886;9.426;2023-02-01T06:22:44;98548.53;;;4.94;84.67
22104;BME280;11218;48.886;9.426;2023-02-01T06:25:20;98559.81;;;4.90;85.43
22104;BME280;11218;48.886;9.426;2023-02-01T06:27:48;98569.06;;;4.94;85.09
22104;BME280;11218;48.886;9.426;2023-02-01T06:30:23;98553.66;;;4.89;85.78
22104;BME280;11218;48.886;9.426;2023-02-01T06:32:51;98570.06;;;4.93;85.27
22104;BME280;11218;48.886;9.426;2023-02-01T06:35:23;98565.13;;;4.90;84.80
22104;BME280;11218;48.886;9.426;2023-02-01T06:37:54;98552.81;;;4.89;85.94
22104;BME280;11218;48.886;9.426;2023-02-01T06:40:26;98547.06;;;4.79;85.78
22104;BME280;11218;48.886;9.426;2023-02-01T06:42:54;98554.44;;;4.83;85.83
22104;BME280;11218;48.886;9.426;2023-02-01T06:45:23;98548.91;;;4.78;86.15
22104;BME280;11218;48.886;9.426;2023-02-01T06:47:52;98552.59;;;4.84;86.08
22104;BME280;11218;48.886;9.426;2023-02-01T06:50:20;98554.66;;;4.82;86.25
22104;BME280;11218;48.886;9.426;2023-02-01T06:52:50;98558.94;;;4.76;86.37
22104;BME280;11218;48.886;9.426;2023-02-01T06:55:18;98576.38;;;4.79;86.55
22104;BME280;11218;48.886;9.426;2023-02-01T06:57:49;98577.59;;;4.76;85.74
22104;BME280;11218;48.886;9.426;2023-02-01T07:00:21;98579.22;;;4.71;86.84
22104;BME280;11218;48.886;9.426;2023-02-01T07:02:50;98592.59;;;4.77;86.29
22104;BME280;11218;48.886;9.426;2023-02-01T07:05:47;98587.44;;;4.76;86.16
22104;BME280;11218;48.886;9.426;2023-02-01T07:08:17;98582.72;;;4.71;86.70
22104;BME280;11218;48.886;9.426;2023-02-01T07:10:45;98583.34;;;4.73;87.26
22104;BME280;11218;48.886;9.426;2023-02-01T07:13:19;98584.78;;;4.76;87.05
22104;BME280;11218;48.886;9.426;2023-02-01T07:15:49;98595.84;;;4.73;87.21
22104;BME280;11218;48.886;9.426;2023-02-01T07:18:21;98603.25;;;4.77;86.33
22104;BME280;11218;48.886;9.426;2023-02-01T07:20:50;98608.16;;;4.74;86.62
22104;BME280;11218;48.886;9.426;2023-02-01T07:23:19;98617.84;;;4.81;87.37
22104;BME280;11218;48.886;9.426;2023-02-01T07:25:54;98623.94;;;4.75;88.20
22104;BME280;11218;48.886;9.426;2023-02-01T07:28:24;98617.56;;;4.70;87.77
22104;BME280;11218;48.886;9.426;2023-02-01T07:30:53;98616.78;;;4.76;88.04
22104;BME280;11218;48.886;9.426;2023-02-01T07:33:22;98617.41;;;4.78;88.29
22104;BME280;11218;48.886;9.426;2023-02-01T07:35:53;98617.41;;;4.78;88.45
22104;BME280;11218;48.886;9.426;2023-02-01T07:38:23;98621.31;;;4.82;89.03
22104;BME280;11218;48.886;9.426;2023-02-01T07:40:57;98618.09;;;4.93;88.92
22104;BME280;11218;48.886;9.426;2023-02-01T07:43:26;98630.41;;;4.94;89.23
22104;BME280;11218;48.886;9.426;2023-02-01T07:45:55;98624.50;;;5.05;88.42
22104;BME280;11218;48.886;9.426;2023-02-01T07:48:24;98621.19;;;5.03;88.67
22104;BME280;11218;48.886;9.426;2023-02-01T07:50:57;98625.91;;;5.01;89.11
22104;BME280;11218;48.886;9.426;2023-02-01T07:53:26;98632.53;;;5.12;88.87
22104;BME280;11218;48.886;9.426;2023-02-01T07:55:54;98626.38;;;5.11;89.61
22104;BME280;11218;48.886;9.426;2023-02-01T07:58:23;98612.41;;;5.09;89.02
22104;BME280;11218;48.886;9.426;2023-02-01T08:00:54;98617.13;;;5.07;89.38
22104;BME280;11218;48.886;9.426;2023-02-01T08:03:40;98614.22;;;5.02;89.82
22104;BME280;11218;48.886;9.426;2023-02-01T08:06:08;98603.72;;;4.94;90.40
22104;BME280;11218;48.886;9.426;2023-02-01T08:08:37;98595.94;;;4.92;90.10
22104;BME280;11218;48.886;9.426;2023-02-01T08:11:06;98593.91;;;5.01;89.80
22104;BME280;11218;48.886;9.426;2023-02-01T08:13:36;98592.66;;;4.97;89.19
22104;BME280;11218;48.886;9.426;2023-02-01T08:16:09;98591.03;;;5.03;88.66
22104;BME280;11218;48.886;9.426;2023-02-01T08:18:38;98604.81;;;5.06;88.18
22104;BME280;11218;48.886;9.426;2023-02-01T08:21:08;98589.63;;;5.13;87.09
22104;BME280;11218;48.886;9.426;2023-02-01T08:23:39;98590.88;;;5.17;86.44
22104;BME280;11218;48.886;9.426;2023-02-01T08:26:09;98586.75;;;5.15;86.29
22104;BME280;11218;48.886;9.426;2023-02-01T08:28:40;98597.22;;;5.23;86.41
22104;BME280;11218;48.886;9.426;2023-02-01T08:31:12;98615.28;;;5.21;86.50
22104;BME280;11218;48.886;9.426;2023-02-01T08:33:42;98612.22;;;5.31;85.89
22104;BME280;11218;48.886;9.426;2023-02-01T08:36:11;98620.63;;;5.27;85.32
22104;BME280;11218;48.886;9.426;2023-02-01T08:38:39;98618.59;;;5.36;84.89
22104;BME280;11218;48.886;9.426;2023-02-01T08:41:09;98614.69;;;5.32;85.55
22104;BME280;11218;48.886;9.426;2023-02-01T08:43:38;98620.25;;;5.37;85.34
22104;BME280;11218;48.886;9.426;2023-02-01T08:46:06;98622.75;;;5.45;84.93
22104;BME280;11218;48.886;9.426;2023-02-01T08:48:37;98622.75;;;5.45;84.49
22104;BME280;11218;48.886;9.426;2023-02-01T08:51:07;98624.59;;;5.51;83.85
22104;BME280;11218;48.886;9.426;2023-02-01T08:53:37;98628.50;;;5.55;83.47
22104;BME280;11218;48.886;9.426;2023-02-01T08:56:07;98622.13;;;5.50;83.49
22104;BME280;11218;48.886;9.426;2023-02-01T08:58:35;98621.31;;;5.63;82.90
22104;BME280;11218;48.886;9.426;2023-02-01T09:01:06;98620.50;;;5.62;83.47
22104;BME280;11218;48.886;9.426;2023-02-01T09:03:39;98627.09;;;5.66;82.71
22104;BME280;11218;48.886;9.426;2023-02-01T09:06:09;98622.38;;;5.68;82.91
22104;BME280;11218;48.886;9.426;2023-02-01T09:08:39;98624.41;;;5.59;83.46
22104;BME280;11218;48.886;9.426;2023-02-01T09:11:12;98635.50;;;5.63;83.05
22104;BME280;11218;48.886;9.426;2023-02-01T09:13:40;98625.84;;;5.69;82.70
22104;BME280;11218;48.886;9.426;2023-02-01T09:16:09;98629.75;;;5.66;82.47
22104;BME280;11218;48.886;9.426;2023-02-01T09:18:39;98625.84;;;5.62;83.26
22104;BME280;11218;48.886;9.426;2023-02-01T09:21:27;98639.22;;;5.69;83.71
22104;BME280;11218;48.886;9.426;2023-02-01T09:23:56;98644.75;;;5.74;82.53
22104;BME280;11218;48.886;9.426;2023-02-01T09:26:26;98642.94;;;5.81;81.89
22104;BME280;11218;48.886;9.426;2023-02-01T09:28:58;98641.91;;;5.95;81.27
22104;BME280;11218;48.886;9.426;2023-02-01T09:31:27;98641.50;;;6.05;80.12
22104;BME280;11218;48.886;9.426;2023-02-01T09:33:57;98643.97;;;6.06;81.38
22104;BME280;11218;48.886;9.426;2023-02-01T09:36:26;98641.28;;;6.06;81.45
22104;BME280;11218;48.886;9.426;2023-02-01T09:38:56;98638.00;;;6.11;81.20
22104;BME280;11218;48.886;9.426;2023-02-01T09:41:41;98631.44;;;6.13;82.50
22104;BME280;11218;48.886;9.426;2023-02-01T09:44:21;98652.19;;;6.18;81.28
22104;BME280;11218;48.886;9.426;2023-02-01T09:47:11;98654.25;;;6.22;81.23
22104;BME280;11218;48.886;9.426;2023-02-01T09:49:48;98651.97;;;6.19;81.78
22104;BME280;11218;48.886;9.426;2023-02-01T09:52:25;98656.91;;;6.22;80.79
22104;BME280;11218;48.886;9.426;2023-02-01T09:55:00;98657.34;;;6.19;80.33
22104;BME280;11218;48.886;9.426;2023-02-01T09:57:40;98655.69;;;6.18;80.73
22104;BME280;11218;48.886;9.426;2023-02-01T10:00:16;98660.63;;;6.15;80.16
22104;BME280;11218;48.886;9.426;2023-02-01T10:02:46;98665.13;;;6.14;80.03
22104;BME280;11218;48.886;9.426;2023-02-01T10:05:19;98665.56;;;6.11;78.78
22104;BME280;11218;48.886;9.426;2023-02-01T10:08:00;98662.25;;;6.09;79.21
22104;BME280;11218;48.886;9.426;2023-02-01T10:10:36;98660.63;;;6.15;78.52
22104;BME280;11218;48.886;9.426;2023-02-01T10:13:17;98669.66;;;6.14;78.44
22104;BME280;11218;48.886;9.426;2023-02-01T10:16:00;98667.19;;;6.19;77.72
22104;BME280;11218;48.886;9.426;2023-02-01T10:21:38;98664.31;;;6.20;78.32
22104;BME280;11218;48.886;9.426;2023-02-01T10:24:42;98679.94;;;6.30;76.95
22104;BME280;11218;48.886;9.426;2023-02-01T10:27:20;98680.56;;;6.39;76.34
22104;BME280;11218;48.886;9.426;2023-02-01T10:29:54;98686.31;;;6.42;77.14
22104;BME280;11218;48.886;9.426;2023-02-01T10:32:29;98683.03;;;6.40;75.65
22104;BME280;11218;48.886;9.426;2023-02-01T10:35:00;98691.66;;;6.42;76.06
22104;BME280;11218;48.886;9.426;2023-02-01T10:37:32;98682.63;;;6.43;74.95
22104;BME280;11218;48.886;9.426;2023-02-01T10:40:10;98683.22;;;6.45;75.23
22104;BME280;11218;48.886;9.426;2023-02-01T10:42:41;98698.84;;;6.48;73.60
22104;BME280;11218;48.886;9.426;2023-02-01T10:45:13;98690.44;;;6.45;75.03
22104;BME280;11218;48.886;9.426;2023-02-01T10:47:44;98700.50;;;6.49;75.48
22104;BME280;11218;48.886;9.426;2023-02-01T10:50:20;98684.25;;;6.44;73.88
22104;BME280;11218;48.886;9.426;2023-02-01T10:52:58;98692.28;;;6.44;74.76
22104;BME280;11218;48.886;9.426;2023-02-01T10:55:38;98684.66;;;6.41;74.31
22104;BME280;11218;48.886;9.426;2023-02-01T10:58:14;98677.28;;;6.37;74.05
22104;BME280;11218;48.886;9.426;2023-02-01T11:00:46;98681.59;;;6.31;75.51
22104;BME280;11218;48.886;9.426;2023-02-01T11:03:33;98673.97;;;6.28;76.67
22104;BME280;11218;48.886;9.426;2023-02-01T11:06:09;98672.94;;;6.29;75.97
22104;BME280;11218;48.886;9.426;2023-02-01T11:08:45;98668.22;;;6.31;75.13
22104;BME280;11218;48.886;9.426;2023-02-01T11:11:14;98659.59;;;6.29;75.17
22104;BME280;11218;48.886;9.426;2023-02-01T11:13:52;98648.50;;;6.25;75.63
22104;BME280;11218;48.886;9.426;2023-02-01T11:16:21;98651.38;;;6.31;75.55
22104;BME280;11218;48.886;9.426;2023-02-01T11:18:53;98661.84;;;6.25;75.65
22104;BME280;11218;48.886;9.426;2023-02-01T11:21:22;98657.94;;;6.28;75.34
22104;BME280;11218;48.886;9.426;2023-02-01T11:23:52;98666.16;;;6.26;75.72
22104;BME280;11218;48.886;9.426;2023-02-01T11:26:22;98662.06;;;6.31;74.89
22104;BME280;11218;48.886;9.426;2023-02-01T11:28:56;98661.66;;;6.27;75.28
22104;BME280;11218;48.886;9.426;2023-02-01T11:31:27;98651.16;;;6.32;74.20
22104;BME280;11218;48.886;9.426;2023-02-01T11:34:05;98643.75;;;6.34;73.86
22104;BME280;11218;48.886;9.426;2023-02-01T11:36:37;98638.81;;;6.38;75.33
22104;BME280;11218;48.886;9.426;2023-02-01T11:39:17;98633.47;;;6.38;74.38
22104;BME280;11218;48.886;9.426;2023-02-01T11:42:00;98641.88;;;6.41;73.77
22104;BME280;11218;48.886;9.426;2023-02-01T11:44:33;98636.53;;;6.41;73.66
22104;BME280;11218;48.886;9.426;2023-02-01T11:47:25;98620.72;;;6.40;73.38
22104;BME280;11218;48.886;9.426;2023-02-01T11:49:55;98627.91;;;6.33;73.92
22104;BME280;11218;48.886;9.426;2023-02-01T11:52:48;98633.25;;;6.33;73.06
22104;BME280;11218;48.886;9.426;2023-02-01T11:55:36;98626.28;;;6.32;72.58
22104;BME280;11218;48.886;9.426;2023-02-01T11:58:15;98610.44;;;6.30;70.66
22104;BME280;11218;48.886;9.426;2023-02-01T12:01:05;98615.16;;;6.28;70.76
22104;BME280;11218;48.886;9.426;2023-02-01T12:04:10;98599.97;;;6.29;71.42
22104;BME280;11218;48.886;9.426;2023-02-01T12:06:48;98609.63;;;6.30;71.24
22104;BME280;11218;48.886;9.426;2023-02-01T12:09:39;98603.84;;;6.33;70.37
22104;BME280;11218;48.886;9.426;2023-02-01T12:12:19;98608.19;;;6.34;71.63
22104;BME280;11218;48.886;9.426;2023-02-01T12:15:03;98594.81;;;6.34;70.75
22104;BME280;11218;48.886;9.426;2023-02-01T12:18:00;98593.97;;;6.40;68.85
22104;BME280;11218;48.886;9.426;2023-02-01T12:21:06;98603.22;;;6.44;68.37
22104;BME280;11218;48.886;9.426;2023-02-01T12:23:50;98581.63;;;6.45;68.11
22104;BME280;11218;48.886;9.426;2023-02-01T12:26:49;98595.59;;;6.47;67.63
22104;BME280;11218;48.886;9.426;2023-02-01T12:29:39;98598.28;;;6.47;68.08
22104;BME280;11218;48.886;9.426;2023-02-01T12:32:25;98595.41;;;6.42;68.52
22104;BME280;11218;48.886;9.426;2023-02-01T12:35:11;98603.00;;;6.45;68.21
22104;BME280;11218;48.886;9.426;2023-02-01T12:38:06;98593.78;;;6.35;68.65
22104;BME280;11218;48.886;9.426;2023-02-01T12:40:50;98597.88;;;6.37;68.32
22104;BME280;11218;48.886;9.426;2023-02-01T12:43:25;98596.84;;;6.38;nan
22104;BME280;11218;48.886;9.426;2023-02-01T12:46:04;98596.66;;;6.33;68.18
22104;BME280;11218;48.886;9.426;2023-02-01T12:48:38;98596.88;;;6.32;68.95
22104;BME280;11218;48.886;9.426;2023-02-01T12:51:14;98601.19;;;6.39;68.61
22104;BME280;11218;48.886;9.426;2023-02-01T12:53:46;98584.13;;;6.34;68.05
22104;BME280;11218;48.886;9.426;2023-02-01T12:56:20;98596.03;;;6.44;nan
22104;BME280;11218;48.886;9.426;2023-02-01T12:58:51;98587.38;;;6.42;70.09
22104;BME280;11218;48.886;9.426;2023-02-01T13:01:27;98596.22;;;6.43;69.71
22104;BME280;11218;48.886;9.426;2023-02-01T13:04:03;98599.91;;;6.48;69.49
22104;BME280;11218;48.886;9.426;2023-02-01T13:06:40;98594.78;;;6.47;69.61
22104;BME280;11218;48.886;9.426;2023-02-01T13:09:21;98579.78;;;6.46;70.97
22104;BME280;11218;48.886;9.426;2023-02-01T13:11:53;98579.16;;;6.44;71.71
22104;BME280;11218;48.886;9.426;2023-02-01T13:14:32;98585.31;;;6.51;70.53
22104;BME280;11218;48.886;9.426;2023-02-01T13:17:05;98570.91;;;6.52;71.09
22104;BME280;11218;48.886;9.426;2023-02-01T13:19:43;98575.22;;;6.53;71.01
22104;BME280;11218;48.886;9.426;2023-02-01T13:22:18;98571.31;;;6.55;70.97
22104;BME280;11218;48.886;9.426;2023-02-01T13:24:50;98579.34;;;6.49;71.81
22104;BME280;11218;48.886;9.426;2023-02-01T13:27:20;98573.59;;;6.45;72.18
22104;BME280;11218;48.886;9.426;2023-02-01T13:29:53;98575.44;;;6.45;72.19
22104;BME280;11218;48.886;9.426;2023-02-01T13:32:48;98579.78;;;6.46;73.00
22104;BME280;11218;48.886;9.426;2023-02-01T13:36:02;98579.16;;;6.44;72.73
22104;BME280;11218;48.886;9.426;2023-02-01T13:38:49;98573.00;;;6.37;73.20
22104;BME280;11218;48.886;9.426;2023-02-01T13:41:28;98563.34;;;6.36;73.04
22104;BME280;11218;48.886;9.426;2023-02-01T13:44:00;98565.00;;;6.30;73.97
22104;BME280;11218;48.886;9.426;2023-02-01T13:46:38;98565.19;;;6.35;73.49
22104;BME280;11218;48.886;9.426;2023-02-01T13:49:18;98571.38;;;6.36;72.97
22104;BME280;11218;48.886;9.426;2023-02-01T13:51:49;98555.13;;;6.31;73.06